createdAt,value
2023-03-11T00:00:47.276Z,4.87
2023-03-11T00:01:49.509Z,4.75
2023-03-11T00:02:53.405Z,4.22
2023-03-11T00:03:55.251Z,4.75
2023-03-11T00:04:57.105Z,4.77
2023-03-11T00:06:01.840Z,4.77
2023-03-11T00:07:07.128Z,4.40
2023-03-11T00:08:12.335Z,4.70
2023-03-11T00:09:14.756Z,3.95
2023-03-11T00:10:20.465Z,4.48
2023-03-11T00:11:22.573Z,4.47
2023-03-11T00:12:24.415Z,4.07
2023-03-11T00:13:27.480Z,4.17
2023-03-11T00:14:29.908Z,4.10
2023-03-11T00:15:32.494Z,3.73
2023-03-11T00:16:34.375Z,3.97
2023-03-11T00:17:36.239Z,3.88
2023-03-11T00:18:38.089Z,3.58
2023-03-11T00:19:39.864Z,3.55
2023-03-11T00:20:43.913Z,3.70
2023-03-11T00:21:45.801Z,3.73
2023-03-11T00:22:48.138Z,4.13
2023-03-11T00:23:50.050Z,3.80
2023-03-11T00:24:51.854Z,3.93
2023-03-11T00:25:53.831Z,3.87
2023-03-11T00:26:55.612Z,3.95
2023-03-11T00:27:57.635Z,4.02
2023-03-11T00:28:59.610Z,4.20
2023-03-11T00:30:01.456Z,4.22
2023-03-11T00:31:03.836Z,4.23
2023-03-11T00:32:05.989Z,4.60
2023-03-11T00:33:08.592Z,4.35
2023-03-11T00:34:10.516Z,4.22
2023-03-11T00:35:14.193Z,4.37
2023-03-11T00:36:24.375Z,4.33
2023-03-11T00:37:26.656Z,4.30
2023-03-11T00:38:28.568Z,4.65
2023-03-11T00:39:30.815Z,4.70
2023-03-11T00:40:34.202Z,4.80
2023-03-11T00:41:35.940Z,5.28
2023-03-11T00:42:37.765Z,4.87
2023-03-11T00:43:39.596Z,4.55
2023-03-11T00:44:41.498Z,4.67
2023-03-11T00:45:43.342Z,4.13
2023-03-11T00:46:45.180Z,3.97
2023-03-11T00:47:47.310Z,4.50
2023-03-11T00:48:51.577Z,4.47
2023-03-11T00:49:53.703Z,4.87
2023-03-11T00:50:55.652Z,4.23
2023-03-11T00:51:57.854Z,4.53
2023-03-11T00:53:00.555Z,3.97
2023-03-11T00:54:02.411Z,3.95
2023-03-11T00:55:05.083Z,4.30
2023-03-11T00:56:09.266Z,4.45
2023-03-11T00:57:11.118Z,4.08
2023-03-11T00:58:13.211Z,3.52
2023-03-11T00:59:15.096Z,3.88
2023-03-11T01:00:19.152Z,4.07
2023-03-11T01:01:21.363Z,3.48
2023-03-11T01:02:23.480Z,3.47
2023-03-11T01:03:25.429Z,3.02
2023-03-11T01:04:27.383Z,2.97
2023-03-11T01:05:31.739Z,2.52
2023-03-11T01:06:44.768Z,2.13
2023-03-11T01:07:48.329Z,2.18
2023-03-11T01:08:50.184Z,2.12
2023-03-11T01:09:52.022Z,1.98
2023-03-11T01:10:53.982Z,1.90
2023-03-11T01:11:55.913Z,2.03
2023-03-11T01:12:57.986Z,2.17
2023-03-11T01:14:00.380Z,1.92
2023-03-11T01:15:02.918Z,1.92
2023-03-11T01:16:05.872Z,2.08
2023-03-11T01:17:08.001Z,1.93
2023-03-11T01:18:10.166Z,1.88
2023-03-11T01:19:12.368Z,1.98
2023-03-11T01:20:14.918Z,1.68
2023-03-11T01:21:16.745Z,1.83
2023-03-11T01:22:18.716Z,1.62
2023-03-11T01:23:21.398Z,1.68
2023-03-11T01:24:23.191Z,1.82
2023-03-11T01:25:25.364Z,1.52
2023-03-11T01:26:27.207Z,1.77
2023-03-11T01:27:29.242Z,1.43
2023-03-11T01:28:31.096Z,1.37
2023-03-11T01:29:32.978Z,1.23
2023-03-11T01:30:36.884Z,1.38
2023-03-11T01:31:39.029Z,1.52
2023-03-11T01:32:40.843Z,1.27
2023-03-11T01:33:42.630Z,1.47
2023-03-11T01:34:44.449Z,1.43
2023-03-11T01:35:46.574Z,1.40
2023-03-11T01:36:48.693Z,1.60
2023-03-11T01:37:50.548Z,1.43
2023-03-11T01:38:52.363Z,1.60
2023-03-11T01:39:54.298Z,1.83
2023-03-11T01:40:56.086Z,1.68
2023-03-11T01:41:58.308Z,1.72
2023-03-11T01:43:01.002Z,1.70
2023-03-11T01:44:04.930Z,1.63
2023-03-11T01:45:41.895Z,1.65
2023-03-11T01:46:52.797Z,1.72
2023-03-11T01:47:55.081Z,1.80
2023-03-11T01:48:58.896Z,1.90
2023-03-11T01:50:01.653Z,1.72
2023-03-11T01:51:03.705Z,1.48
2023-03-11T01:52:10.512Z,1.80
2023-03-11T01:53:13.892Z,1.50
2023-03-11T01:54:27.860Z,1.63
2023-03-11T01:55:31.584Z,1.70
2023-03-11T01:56:35.636Z,1.32
2023-03-11T01:57:39.303Z,1.30
2023-03-11T01:58:45.017Z,1.32
2023-03-11T01:59:53.600Z,1.25
2023-03-11T02:00:56.701Z,1.13
2023-03-11T02:02:07.186Z,1.50
2023-03-11T02:03:14.881Z,1.33
2023-03-11T02:04:17.326Z,1.30
2023-03-11T02:05:20.540Z,1.58
2023-03-11T02:06:24.246Z,1.23
2023-03-11T02:07:26.139Z,1.35
2023-03-11T02:08:30.160Z,1.47
2023-03-11T02:09:32.057Z,1.38
2023-03-11T02:10:34.251Z,1.42
2023-03-11T02:11:36.174Z,1.43
2023-03-11T02:12:38.099Z,1.62
2023-03-11T02:13:41.350Z,1.33
2023-03-11T02:14:46.376Z,1.28
2023-03-11T02:15:48.283Z,1.32
2023-03-11T02:16:50.086Z,1.25
2023-03-11T02:17:53.652Z,1.08
2023-03-11T02:18:58.122Z,1.18
2023-03-11T02:20:13.463Z,1.25
2023-03-11T02:21:28.203Z,1.12
2023-03-11T02:22:33.502Z,1.18
2023-03-11T02:23:53.959Z,0.88
2023-03-11T02:25:17.526Z,1.07
2023-03-11T02:26:37.972Z,1.22
2023-03-11T02:27:42.395Z,1.27
2023-03-11T02:28:46.389Z,1.23
2023-03-11T02:29:50.109Z,1.33
2023-03-11T02:30:52.549Z,1.28
2023-03-11T02:31:56.218Z,1.38
2023-03-11T02:32:59.265Z,1.37
2023-03-11T02:34:04.347Z,1.43
2023-03-11T02:35:07.311Z,1.28
2023-03-11T02:36:33.753Z,1.25
2023-03-11T02:37:35.559Z,1.48
2023-03-11T02:38:37.632Z,1.38
2023-03-11T02:39:45.589Z,1.45
2023-03-11T02:40:55.577Z,1.35
2023-03-11T02:41:58.897Z,1.30
2023-03-11T02:43:03.602Z,1.33
2023-03-11T02:44:08.022Z,1.38
2023-03-11T02:45:12.707Z,1.32
2023-03-11T02:46:15.632Z,1.23
2023-03-11T02:47:17.656Z,1.12
2023-03-11T02:48:21.955Z,1.32
2023-03-11T02:49:24.588Z,1.23
2023-03-11T02:50:28.871Z,1.13
2023-03-11T02:51:31.101Z,1.25
2023-03-11T02:52:34.318Z,1.13
2023-03-11T02:53:41.859Z,1.35
2023-03-11T02:54:43.760Z,1.17
2023-03-11T02:55:45.534Z,1.18
2023-03-11T02:56:47.696Z,1.47
2023-03-11T02:57:49.531Z,1.43
2023-03-11T02:58:51.926Z,1.77
2023-03-11T02:59:54.285Z,2.08
2023-03-11T03:00:56.308Z,1.97
2023-03-11T03:01:58.334Z,1.80
2023-03-11T03:03:00.496Z,1.87
2023-03-11T03:04:02.614Z,1.72
2023-03-11T03:05:04.779Z,1.40
2023-03-11T03:06:07.102Z,1.83
2023-03-11T03:07:09.263Z,1.57
2023-03-11T03:08:11.091Z,1.60
2023-03-11T03:09:13.054Z,1.40
2023-03-11T03:10:16.504Z,1.33
2023-03-11T03:11:18.359Z,1.42
2023-03-11T03:12:20.185Z,1.25
2023-03-11T03:13:21.933Z,1.00
2023-03-11T03:14:23.759Z,0.85
2023-03-11T03:15:25.828Z,0.88
2023-03-11T03:16:27.716Z,0.93
2023-03-11T03:17:29.576Z,1.02
2023-03-11T03:18:31.489Z,0.93
2023-03-11T03:19:33.292Z,0.98
2023-03-11T03:20:35.435Z,1.00
2023-03-11T03:21:37.461Z,0.83
2023-03-11T03:22:40.888Z,0.93
2023-03-11T03:23:42.700Z,1.12
2023-03-11T03:24:44.503Z,1.00
2023-03-11T03:25:46.492Z,0.92
2023-03-11T03:26:48.584Z,1.03
2023-03-11T03:27:50.801Z,0.93
2023-03-11T03:28:52.594Z,1.03
2023-03-11T03:29:54.563Z,1.08
2023-03-11T03:30:56.719Z,1.02
2023-03-11T03:31:58.788Z,0.93
2023-03-11T03:33:00.670Z,1.12
2023-03-11T03:34:02.426Z,0.95
2023-03-11T03:35:04.747Z,1.03
2023-03-11T03:36:09.202Z,1.00
2023-03-11T03:37:11.070Z,1.20
2023-03-11T03:38:13.177Z,1.32
2023-03-11T03:39:16.098Z,1.12
2023-03-11T03:40:18.067Z,1.40
2023-03-11T03:41:19.870Z,1.48
2023-03-11T03:42:22.561Z,1.30
2023-03-11T03:43:24.494Z,1.28
2023-03-11T03:44:26.375Z,1.13
2023-03-11T03:45:28.138Z,1.37
2023-03-11T03:46:29.989Z,1.30
2023-03-11T03:47:33.182Z,1.40
2023-03-11T03:48:35.280Z,1.20
2023-03-11T03:49:37.205Z,1.05
2023-03-11T03:50:40.421Z,1.38
2023-03-11T03:51:42.185Z,1.10
2023-03-11T03:52:43.997Z,1.12
2023-03-11T03:53:48.292Z,1.57
2023-03-11T03:54:50.458Z,1.33
2023-03-11T03:55:54.561Z,1.25
2023-03-11T03:56:56.519Z,1.20
2023-03-11T03:57:58.445Z,1.35
2023-03-11T03:59:00.233Z,1.38
2023-03-11T04:00:02.034Z,1.45
2023-03-11T04:01:05.775Z,1.28
2023-03-11T04:02:07.692Z,1.13
2023-03-11T04:03:09.563Z,1.02
2023-03-11T04:04:11.537Z,1.10
2023-03-11T04:05:13.340Z,1.13
2023-03-11T04:06:26.333Z,1.20
2023-03-11T04:07:28.178Z,1.28
2023-03-11T04:08:30.061Z,1.10
2023-03-11T04:09:32.729Z,1.17
2023-03-11T04:10:34.723Z,1.43
2023-03-11T04:11:36.530Z,1.20
2023-03-11T04:12:38.401Z,1.30
2023-03-11T04:13:40.519Z,1.55
2023-03-11T04:14:42.309Z,1.93
2023-03-11T04:15:44.117Z,2.27
2023-03-11T04:16:46.063Z,1.58
2023-03-11T04:17:48.262Z,1.50
2023-03-11T04:18:50.505Z,1.15
2023-03-11T04:19:52.307Z,1.27
2023-03-11T04:20:54.198Z,1.87
2023-03-11T04:21:56.025Z,2.22
2023-03-11T04:22:57.762Z,2.20
2023-03-11T04:23:59.635Z,1.95
2023-03-11T04:25:01.474Z,1.77
2023-03-11T04:26:04.064Z,1.65
2023-03-11T04:27:06.312Z,1.60
2023-03-11T04:28:08.202Z,1.68
2023-03-11T04:29:10.426Z,1.55
2023-03-11T04:30:13.238Z,1.80
2023-03-11T04:31:15.170Z,1.28
2023-03-11T04:32:17.022Z,1.33
2023-03-11T04:33:18.999Z,1.43
2023-03-11T04:34:20.984Z,1.58
2023-03-11T04:35:22.850Z,1.37
2023-03-11T04:36:24.878Z,1.13
2023-03-11T04:37:28.791Z,0.98
2023-03-11T04:38:30.868Z,1.02
2023-03-11T04:39:32.901Z,1.07
2023-03-11T04:40:34.773Z,1.30
2023-03-11T04:41:37.176Z,1.27
2023-03-11T04:42:39.189Z,1.48
2023-03-11T04:43:41.026Z,1.52
2023-03-11T04:44:42.859Z,1.65
2023-03-11T04:45:44.695Z,1.40
2023-03-11T04:46:46.600Z,1.52
2023-03-11T04:47:49.376Z,1.42
2023-03-11T04:48:51.249Z,1.25
2023-03-11T04:49:53.532Z,1.25
2023-03-11T04:50:55.697Z,1.15
2023-03-11T04:51:57.663Z,0.97
2023-03-11T04:52:59.501Z,0.95
2023-03-11T04:54:01.312Z,0.98
2023-03-11T04:55:03.104Z,1.28
2023-03-11T04:56:04.936Z,1.67
2023-03-11T04:57:07.108Z,1.53
2023-03-11T04:58:09.170Z,1.22
2023-03-11T04:59:10.934Z,1.28
2023-03-11T05:00:15.692Z,1.23
2023-03-11T05:01:18.183Z,1.47
2023-03-11T05:02:20.125Z,1.17
2023-03-11T05:03:22.107Z,1.00
2023-03-11T05:04:24.083Z,1.08
2023-03-11T05:05:25.970Z,1.23
2023-03-11T05:06:27.814Z,1.45
2023-03-11T05:07:29.936Z,1.57
2023-03-11T05:08:32.628Z,1.12
2023-03-11T05:09:35.506Z,1.72
2023-03-11T05:10:40.190Z,1.75
2023-03-11T05:11:41.945Z,1.28
2023-03-11T05:12:43.772Z,1.43
2023-03-11T05:13:45.564Z,1.22
2023-03-11T05:14:47.342Z,1.45
2023-03-11T05:15:49.206Z,1.52
2023-03-11T05:16:51.458Z,1.28
2023-03-11T05:17:53.308Z,1.88
2023-03-11T05:18:55.181Z,1.52
2023-03-11T05:19:57.562Z,1.77
2023-03-11T05:21:00.117Z,1.85
2023-03-11T05:22:06.067Z,2.15
2023-03-11T05:23:07.957Z,2.18
2023-03-11T05:24:09.736Z,2.32
2023-03-11T05:25:11.539Z,2.13
2023-03-11T05:26:13.436Z,1.85
2023-03-11T05:27:18.333Z,2.03
2023-03-11T05:28:20.184Z,2.27
2023-03-11T05:29:22.990Z,2.65
2023-03-11T05:30:24.880Z,2.63
2023-03-11T05:31:26.786Z,2.42
2023-03-11T05:32:28.668Z,2.50
2023-03-11T05:33:35.308Z,2.63
2023-03-11T05:34:37.566Z,2.73
2023-03-11T05:35:39.456Z,2.62
2023-03-11T05:36:41.388Z,2.23
2023-03-11T05:37:43.491Z,1.90
2023-03-11T05:38:45.501Z,2.33
2023-03-11T05:39:47.440Z,1.98
2023-03-11T05:40:49.252Z,1.73
2023-03-11T05:41:51.391Z,1.75
2023-03-11T05:42:53.184Z,1.63
2023-03-11T05:43:54.924Z,1.50
2023-03-11T05:44:56.776Z,1.55
2023-03-11T05:45:58.620Z,1.67
2023-03-11T05:47:00.983Z,2.00
2023-03-11T05:48:02.860Z,2.17
2023-03-11T05:49:04.783Z,2.35
2023-03-11T05:50:07.264Z,2.60
2023-03-11T05:51:10.607Z,3.47
2023-03-11T05:52:12.482Z,3.03
2023-03-11T05:53:14.257Z,2.47
2023-03-11T05:54:16.540Z,2.22
2023-03-11T05:55:18.487Z,2.40
2023-03-11T05:56:22.717Z,2.45
2023-03-11T05:57:24.568Z,2.62
2023-03-11T05:58:27.555Z,3.30
2023-03-11T05:59:29.477Z,3.52
2023-03-11T06:00:31.892Z,4.68
2023-03-11T06:01:34.218Z,3.33
2023-03-11T06:02:36.052Z,2.85
2023-03-11T06:03:38.682Z,3.32
2023-03-11T06:04:40.522Z,3.42
2023-03-11T06:05:49.859Z,3.73
2023-03-11T06:06:51.626Z,5.07
2023-03-11T06:07:53.458Z,5.52
2023-03-11T06:08:55.535Z,3.87
2023-03-11T06:09:57.458Z,3.38
2023-03-11T06:11:04.194Z,3.38
2023-03-11T06:12:06.493Z,4.68
2023-03-11T06:13:08.654Z,6.00
2023-03-11T06:14:14.662Z,5.35
2023-03-11T06:15:16.587Z,5.65
2023-03-11T06:16:18.826Z,4.72
2023-03-11T06:17:20.669Z,3.65
2023-03-11T06:18:22.820Z,3.07
2023-03-11T06:19:28.899Z,2.70
2023-03-11T06:20:31.465Z,2.73
2023-03-11T06:21:33.958Z,2.68
2023-03-11T06:22:37.259Z,3.30
2023-03-11T06:23:40.836Z,2.87
2023-03-11T06:24:42.628Z,2.47
2023-03-11T06:25:44.568Z,2.78
2023-03-11T06:26:46.883Z,2.78
2023-03-11T06:27:53.377Z,2.53
2023-03-11T06:28:55.245Z,2.68
2023-03-11T06:29:57.108Z,2.52
2023-03-11T06:31:08.010Z,2.27
2023-03-11T06:32:10.048Z,2.65
2023-03-11T06:33:11.941Z,2.38
2023-03-11T06:34:13.749Z,2.12
2023-03-11T06:35:15.561Z,2.48
2023-03-11T06:36:19.506Z,2.32
2023-03-11T06:37:23.539Z,2.92
2023-03-11T06:38:25.875Z,2.62
2023-03-11T06:39:27.775Z,2.97
2023-03-11T06:40:29.531Z,3.07
2023-03-11T06:41:34.312Z,3.10
2023-03-11T06:42:36.606Z,2.70
2023-03-11T06:43:38.884Z,1.97
2023-03-11T06:44:40.611Z,1.70
2023-03-11T06:45:42.493Z,1.62
2023-03-11T06:46:44.350Z,1.43
2023-03-11T06:47:46.230Z,1.55
2023-03-11T06:48:51.795Z,1.55
2023-03-11T06:49:53.760Z,2.07
2023-03-11T06:51:00.202Z,2.00
2023-03-11T06:52:02.367Z,1.85
2023-03-11T06:53:06.679Z,1.97
2023-03-11T06:54:10.357Z,1.85
2023-03-11T06:55:12.167Z,2.23
2023-03-11T06:56:14.564Z,2.77
2023-03-11T06:57:16.761Z,2.70
2023-03-11T06:58:18.830Z,3.08
2023-03-11T06:59:22.874Z,2.48
2023-03-11T07:00:24.799Z,2.20
2023-03-11T07:01:28.246Z,1.93
2023-03-11T07:02:30.424Z,1.83
2023-03-11T07:03:32.365Z,1.83
2023-03-11T07:04:34.356Z,2.28
2023-03-11T07:05:36.268Z,2.52
2023-03-11T07:06:38.113Z,3.38
2023-03-11T07:07:40.093Z,6.52
2023-03-11T07:08:42.174Z,6.20
2023-03-11T07:09:44.257Z,3.35
2023-03-11T07:10:46.570Z,2.48
2023-03-11T07:11:49.834Z,2.32
2023-03-11T07:12:52.271Z,2.15
2023-03-11T07:13:54.954Z,1.83
2023-03-11T07:14:57.433Z,2.33
2023-03-11T07:16:11.671Z,2.15
2023-03-11T07:17:13.483Z,1.95
2023-03-11T07:18:15.508Z,1.77
2023-03-11T07:19:17.769Z,2.05
2023-03-11T07:20:20.244Z,2.42
2023-03-11T07:21:23.060Z,2.12
2023-03-11T07:22:24.985Z,1.97
2023-03-11T07:23:26.851Z,6.08
2023-03-11T07:24:28.835Z,19.82
2023-03-11T07:25:30.684Z,5.50
2023-03-11T07:26:33.736Z,3.58
2023-03-11T07:27:37.929Z,2.43
2023-03-11T07:28:40.572Z,2.17
2023-03-11T07:29:42.509Z,3.17
2023-03-11T07:30:46.489Z,3.37
2023-03-11T07:31:49.145Z,3.70
2023-03-11T07:32:51.037Z,3.58
2023-03-11T07:33:53.386Z,3.23
2023-03-11T07:34:55.256Z,2.52
2023-03-11T07:35:57.142Z,2.73
2023-03-11T07:36:59.035Z,2.50
2023-03-11T07:38:00.878Z,2.92
2023-03-11T07:39:05.023Z,2.80
2023-03-11T07:40:07.544Z,2.20
2023-03-11T07:41:14.199Z,2.33
2023-03-11T07:42:16.170Z,3.13
2023-03-11T07:43:18.265Z,2.98
2023-03-11T07:44:20.454Z,2.33
2023-03-11T07:45:22.283Z,2.13
2023-03-11T07:46:25.484Z,2.07
2023-03-11T07:47:27.299Z,2.18
2023-03-11T07:48:29.187Z,2.32
2023-03-11T07:49:31.426Z,2.53
2023-03-11T07:50:33.259Z,2.78
2023-03-11T07:51:37.596Z,2.37
2023-03-11T07:52:39.369Z,2.27
2023-03-11T07:53:41.846Z,2.32
2023-03-11T07:54:45.230Z,2.42
2023-03-11T07:55:47.031Z,2.88
2023-03-11T07:56:49.598Z,3.10
2023-03-11T07:57:51.737Z,3.20
2023-03-11T07:58:54.158Z,5.28
2023-03-11T07:59:56.537Z,10.28
2023-03-11T08:01:22.860Z,3.92
2023-03-11T08:02:24.893Z,2.95
2023-03-11T08:03:26.760Z,3.18
2023-03-11T08:04:28.545Z,2.93
2023-03-11T08:05:33.811Z,2.60
2023-03-11T08:06:37.137Z,3.40
2023-03-11T08:07:39.084Z,2.55
2023-03-11T08:08:41.545Z,2.32
2023-03-11T08:09:43.445Z,2.45
2023-03-11T08:10:45.239Z,2.73
2023-03-11T08:11:49.502Z,3.57
2023-03-11T08:12:51.828Z,5.02
2023-03-11T08:13:53.936Z,18.43
2023-03-11T08:14:55.791Z,22.98
2023-03-11T08:15:57.704Z,8.18
2023-03-11T08:16:59.607Z,4.78
2023-03-11T08:18:01.532Z,5.38
2023-03-11T08:19:03.492Z,5.60
2023-03-11T08:20:08.697Z,3.98
2023-03-11T08:21:13.697Z,32.78
2023-03-11T08:22:15.694Z,4.83
2023-03-11T08:23:17.606Z,4.57
2023-03-11T08:24:19.430Z,3.90
2023-03-11T08:25:21.214Z,5.37
2023-03-11T08:26:23.081Z,4.93
2023-03-11T08:27:24.909Z,4.77
2023-03-11T08:28:26.966Z,5.12
2023-03-11T08:29:29.041Z,5.42
2023-03-11T08:30:31.186Z,5.97
2023-03-11T08:31:35.131Z,5.22
2023-03-11T08:32:37.068Z,3.28
2023-03-11T08:33:38.914Z,3.15
2023-03-11T08:34:40.885Z,3.33
2023-03-11T08:35:42.847Z,3.57
2023-03-11T08:36:44.991Z,2.53
2023-03-11T08:37:46.835Z,2.77
2023-03-11T08:38:49.892Z,3.80
2023-03-11T08:39:52.177Z,3.73
2023-03-11T08:40:54.087Z,3.20
2023-03-11T08:41:56.087Z,3.87
2023-03-11T08:42:57.955Z,2.90
2023-03-11T08:43:59.805Z,2.47
2023-03-11T08:45:01.677Z,2.67
2023-03-11T08:46:06.932Z,3.65
2023-03-11T08:47:13.911Z,2.68
2023-03-11T08:48:15.822Z,3.65
2023-03-11T08:49:17.576Z,5.08
2023-03-11T08:50:20.049Z,5.38
2023-03-11T08:51:22.263Z,3.63
2023-03-11T08:52:24.243Z,2.55
2023-03-11T08:53:26.346Z,4.62
2023-03-11T08:54:28.547Z,7.10
2023-03-11T08:55:30.372Z,4.25
2023-03-11T08:56:32.215Z,3.05
2023-03-11T08:57:34.067Z,8.00
2023-03-11T08:58:36.108Z,5.68
2023-03-11T08:59:38.273Z,5.53
2023-03-11T09:00:40.285Z,5.55
2023-03-11T09:01:42.724Z,6.32
2023-03-11T09:02:44.617Z,4.82
2023-03-11T09:03:46.429Z,3.23
2023-03-11T09:04:48.238Z,2.98
2023-03-11T09:05:56.950Z,3.58
2023-03-11T09:06:58.798Z,4.18
2023-03-11T09:08:00.772Z,3.28
2023-03-11T09:09:02.693Z,9.47
2023-03-11T09:10:05.078Z,5.92
2023-03-11T09:11:07.997Z,6.92
2023-03-11T09:12:13.943Z,6.08
2023-03-11T09:13:15.809Z,4.90
2023-03-11T09:14:17.661Z,4.87
2023-03-11T09:15:19.430Z,5.38
2023-03-11T09:16:23.512Z,6.32
2023-03-11T09:17:25.434Z,4.73
2023-03-11T09:18:28.670Z,3.25
2023-03-11T09:19:30.589Z,5.07
2023-03-11T09:20:32.863Z,4.43
2023-03-11T09:21:35.166Z,6.10
2023-03-11T09:22:36.948Z,5.32
2023-03-11T09:23:41.113Z,5.00
2023-03-11T09:24:44.640Z,4.52
2023-03-11T09:25:46.421Z,4.00
2023-03-11T09:26:48.251Z,5.05
2023-03-11T09:27:50.112Z,4.50
2023-03-11T09:28:51.918Z,6.53
2023-03-11T09:29:53.721Z,8.77
2023-03-11T09:30:55.621Z,9.73
2023-03-11T09:31:57.580Z,8.38
2023-03-11T09:32:59.433Z,9.57
2023-03-11T09:34:01.220Z,8.18
2023-03-11T09:35:03.207Z,8.17
2023-03-11T09:36:05.473Z,7.50
2023-03-11T09:37:07.948Z,4.63
2023-03-11T09:38:09.762Z,3.30
2023-03-11T09:39:12.040Z,9.27
2023-03-11T09:40:19.008Z,3.90
2023-03-11T09:41:36.646Z,2.98
2023-03-11T09:42:54.874Z,3.33
2023-03-11T09:44:08.826Z,5.50
2023-03-11T09:45:17.193Z,9.15
2023-03-11T09:47:05.854Z,9.03
2023-03-11T09:48:21.808Z,8.37
2023-03-11T09:49:30.568Z,9.43
2023-03-11T09:50:43.782Z,11.28
2023-03-11T09:52:12.705Z,7.75
2023-03-11T09:53:29.492Z,11.87
2023-03-11T09:54:38.443Z,10.05
2023-03-11T09:55:49.750Z,12.43
2023-03-11T09:56:51.723Z,10.40
2023-03-11T09:57:54.277Z,8.23
2023-03-11T09:59:02.950Z,4.82
2023-03-11T10:00:06.520Z,3.62
2023-03-11T10:01:19.916Z,3.40
2023-03-11T10:02:26.750Z,3.17
2023-03-11T10:03:38.640Z,3.10
2023-03-11T10:04:50.657Z,3.82
2023-03-11T10:05:55.185Z,6.77
2023-03-11T10:07:00.618Z,8.25
2023-03-11T10:08:20.019Z,7.37
2023-03-11T10:09:54.604Z,13.02
2023-03-11T10:11:25.419Z,5.22
2023-03-11T10:12:39.180Z,10.28
2023-03-11T10:14:06.228Z,7.03
2023-03-11T10:15:23.514Z,6.40
2023-03-11T10:16:38.689Z,7.50
2023-03-11T10:17:58.758Z,5.63
2023-03-11T10:19:11.740Z,6.47
2023-03-11T10:20:23.041Z,6.27
2023-03-11T10:21:40.790Z,6.95
2023-03-11T10:23:22.253Z,9.13
2023-03-11T10:24:35.707Z,8.58
2023-03-11T10:25:37.475Z,7.07
2023-03-11T10:26:44.533Z,6.30
2023-03-11T10:27:55.708Z,9.17
2023-03-11T10:29:08.360Z,12.88
2023-03-11T10:30:24.694Z,9.55
2023-03-11T10:31:32.053Z,6.60
2023-03-11T10:32:43.467Z,10.43
2023-03-11T10:33:48.941Z,9.78
2023-03-11T10:35:04.542Z,12.45
2023-03-11T10:36:12.227Z,12.93
2023-03-11T10:37:46.272Z,15.65
2023-03-11T10:38:52.741Z,14.82
2023-03-11T10:39:55.376Z,11.33
2023-03-11T10:41:01.705Z,8.83
2023-03-11T10:42:05.887Z,12.15
2023-03-11T10:43:17.518Z,9.00
2023-03-11T10:44:29.969Z,10.35
2023-03-11T10:45:41.460Z,17.72
2023-03-11T10:46:43.439Z,17.03
2023-03-11T10:47:45.352Z,12.08
2023-03-11T10:48:47.330Z,13.02
2023-03-11T10:49:49.902Z,5.62
2023-03-11T10:51:03.961Z,6.13
2023-03-11T10:52:06.122Z,7.12
2023-03-11T10:53:11.000Z,7.35
2023-03-11T10:54:31.765Z,7.35
2023-03-11T10:55:33.667Z,9.93
2023-03-11T10:56:38.247Z,13.68
2023-03-11T10:57:41.428Z,16.02
2023-03-11T10:58:49.482Z,10.92
2023-03-11T10:59:53.820Z,8.67
2023-03-11T11:01:01.673Z,6.90
2023-03-11T11:02:23.020Z,6.35
2023-03-11T11:03:25.490Z,5.60
2023-03-11T11:04:41.130Z,4.43
2023-03-11T11:05:42.971Z,3.48
2023-03-11T11:06:44.772Z,3.68
2023-03-11T11:07:53.193Z,3.48
2023-03-11T11:09:16.160Z,3.10
2023-03-11T11:10:26.804Z,3.52
2023-03-11T11:11:28.676Z,3.67
2023-03-11T11:12:30.425Z,2.47
2023-03-11T11:13:37.062Z,3.50
2023-03-11T11:14:50.761Z,4.35
2023-03-11T11:16:05.598Z,5.52
2023-03-11T11:17:21.048Z,6.35
2023-03-11T11:18:32.530Z,8.33
2023-03-11T11:19:34.583Z,6.78
2023-03-11T11:20:39.289Z,8.07
2023-03-11T11:21:44.042Z,10.25
2023-03-11T11:22:55.169Z,9.43
2023-03-11T11:24:08.941Z,10.57
2023-03-11T11:25:37.068Z,8.78
2023-03-11T11:26:39.190Z,10.18
2023-03-11T11:27:54.204Z,10.87
2023-03-11T11:29:15.411Z,12.70
2023-03-11T11:30:18.927Z,10.27
2023-03-11T11:31:25.787Z,5.90
2023-03-11T11:32:28.087Z,5.03
2023-03-11T11:33:39.883Z,4.38
2023-03-11T11:34:41.759Z,3.80
2023-03-11T11:35:52.711Z,3.78
2023-03-11T11:36:57.245Z,4.37
2023-03-11T11:38:04.289Z,7.08
2023-03-11T11:39:16.889Z,7.23
2023-03-11T11:40:26.086Z,5.55
2023-03-11T11:41:30.031Z,3.87
2023-03-11T11:42:31.981Z,2.88
2023-03-11T11:44:06.656Z,3.22
2023-03-11T11:45:28.537Z,3.23
2023-03-11T11:46:58.819Z,4.03
2023-03-11T11:48:05.497Z,3.37
2023-03-11T11:49:20.969Z,3.25
2023-03-11T11:50:32.237Z,3.43
2023-03-11T11:51:40.302Z,3.73
2023-03-11T11:52:51.072Z,3.95
2023-03-11T11:54:03.003Z,2.73
2023-03-11T11:55:20.049Z,2.73
2023-03-11T11:56:25.555Z,3.00
2023-03-11T11:57:27.896Z,3.55
2023-03-11T11:58:30.923Z,3.50
2023-03-11T11:59:32.736Z,3.43
2023-03-11T12:00:43.957Z,3.82
2023-03-11T12:02:05.990Z,3.28
2023-03-11T12:03:35.701Z,3.65
2023-03-11T12:04:50.652Z,3.07
2023-03-11T12:05:58.965Z,2.25
2023-03-11T12:07:09.992Z,2.47
2023-03-11T12:08:25.101Z,3.05
2023-03-11T12:09:34.859Z,2.68
2023-03-11T12:10:36.696Z,2.83
2023-03-11T12:11:52.757Z,2.57
2023-03-11T12:13:19.146Z,2.73
2023-03-11T12:14:41.282Z,3.18
2023-03-11T12:15:53.871Z,2.82
2023-03-11T12:17:03.648Z,3.17
2023-03-11T12:18:15.347Z,2.93
2023-03-11T12:19:33.589Z,2.93
2023-03-11T12:20:41.877Z,3.12
2023-03-11T12:21:54.625Z,2.65
2023-03-11T12:23:13.377Z,2.77
2023-03-11T12:24:46.033Z,2.82
2023-03-11T12:26:21.866Z,3.13
2023-03-11T12:27:28.721Z,3.53
2023-03-11T12:29:23.276Z,3.53
2023-03-11T12:30:37.613Z,3.87
2023-03-11T12:31:40.890Z,3.50
2023-03-11T12:33:07.075Z,4.20
2023-03-11T12:34:15.160Z,5.22
2023-03-11T12:35:24.351Z,8.35
2023-03-11T12:36:30.192Z,8.37
2023-03-11T12:37:32.497Z,7.73
2023-03-11T12:38:40.128Z,8.82
2023-03-11T12:39:41.932Z,10.77
2023-03-11T12:41:03.612Z,12.68
2023-03-11T12:42:11.400Z,8.38
2023-03-11T12:43:42.303Z,5.73
2023-03-11T12:44:45.501Z,4.87
2023-03-11T12:45:50.542Z,4.35
2023-03-11T12:46:57.955Z,3.58
2023-03-11T12:48:25.105Z,3.53
2023-03-11T12:49:31.165Z,3.42
2023-03-11T12:50:39.667Z,3.97
2023-03-11T12:51:41.906Z,3.73
2023-03-11T12:52:54.657Z,3.33
2023-03-11T12:53:56.767Z,3.32
2023-03-11T12:55:18.701Z,3.10
2023-03-11T12:56:32.190Z,3.00
2023-03-11T12:57:33.969Z,3.25
2023-03-11T12:58:53.140Z,3.37
2023-03-11T13:00:18.024Z,2.95
2023-03-11T13:01:25.953Z,3.28
2023-03-11T13:02:47.582Z,3.82
2023-03-11T13:04:01.215Z,4.30
2023-03-11T13:05:24.724Z,4.93
2023-03-11T13:06:34.903Z,5.93
2023-03-11T13:07:57.721Z,5.13
2023-03-11T13:09:00.693Z,5.08
2023-03-11T13:10:14.808Z,5.83
2023-03-11T13:11:34.184Z,5.77
2023-03-11T13:12:42.747Z,5.45
2023-03-11T13:13:44.610Z,4.82
2023-03-11T13:14:46.463Z,5.67
2023-03-11T13:15:48.622Z,5.10
2023-03-11T13:16:51.128Z,5.00
2023-03-11T13:18:26.303Z,5.52
2023-03-11T13:19:38.066Z,5.57
2023-03-11T13:20:42.662Z,6.17
2023-03-11T13:21:44.452Z,6.30
2023-03-11T13:22:52.041Z,6.92
2023-03-11T13:24:18.633Z,10.68
2023-03-11T13:25:32.918Z,12.53
2023-03-11T13:26:41.275Z,13.63
2023-03-11T13:27:47.049Z,18.65
2023-03-11T13:29:05.462Z,17.20
2023-03-11T13:30:20.120Z,10.22
2023-03-11T13:31:44.169Z,6.52
2023-03-11T13:33:03.539Z,5.90
2023-03-11T13:34:14.642Z,5.75
2023-03-11T13:35:46.822Z,5.87
2023-03-11T13:36:54.059Z,5.53
2023-03-11T13:38:26.380Z,5.37
2023-03-11T13:39:48.877Z,6.70
2023-03-11T13:40:53.155Z,4.63
2023-03-11T13:41:55.826Z,3.80
2023-03-11T13:43:04.134Z,3.58
2023-03-11T13:44:24.241Z,3.40
2023-03-11T13:45:32.002Z,3.57
2023-03-11T13:46:39.434Z,4.65
2023-03-11T13:47:45.944Z,6.37
2023-03-11T13:48:50.936Z,8.65
2023-03-11T13:50:23.237Z,19.68
2023-03-11T13:51:33.190Z,5.70
2023-03-11T13:52:57.891Z,7.20
2023-03-11T13:54:03.783Z,4.93
2023-03-11T13:55:06.774Z,5.72
2023-03-11T13:56:27.533Z,4.05
2023-03-11T13:57:34.655Z,3.25
2023-03-11T13:58:36.626Z,3.55
2023-03-11T13:59:38.533Z,3.73
2023-03-11T14:00:48.390Z,4.27
2023-03-11T14:01:55.199Z,4.12
2023-03-11T14:03:00.067Z,2.87
2023-03-11T14:04:02.027Z,3.78
2023-03-11T14:05:15.591Z,4.78
2023-03-11T14:06:20.829Z,4.13
2023-03-11T14:07:27.260Z,5.22
2023-03-11T14:08:30.193Z,4.97
2023-03-11T14:09:32.123Z,5.77
2023-03-11T14:10:34.058Z,6.25
2023-03-11T14:11:36.421Z,6.23
2023-03-11T14:12:38.943Z,5.95
2023-03-11T14:13:51.219Z,5.42
2023-03-11T14:15:07.148Z,3.48
2023-03-11T14:16:19.428Z,5.22
2023-03-11T14:17:21.609Z,4.28
2023-03-11T14:18:46.614Z,4.37
2023-03-11T14:20:09.548Z,4.27
2023-03-11T14:21:22.578Z,4.80
2023-03-11T14:22:24.784Z,5.03
2023-03-11T14:23:34.098Z,5.43
2023-03-11T14:24:36.637Z,7.22
2023-03-11T14:25:38.492Z,9.95
2023-03-11T14:26:43.268Z,10.55
2023-03-11T14:28:18.456Z,7.07
2023-03-11T14:29:24.235Z,5.52
2023-03-11T14:30:29.659Z,5.78
2023-03-11T14:31:33.448Z,4.83
2023-03-11T14:32:35.720Z,4.82
2023-03-11T14:33:37.754Z,5.63